Aviation Digital Data Service (ADDS)

Output produced by METARs form (1619 UTC 21 September 2018)
found at http://www.aviationweather.gov/metar/data/
 
KTYS 211553Z 21011KT 10SM FEW042 29/19 A3018 RMK AO2 SLP209 T02890194
KTYS 211120Z 2112/2212 25005KT P6SM FEW120 SCT250 
     FM211600 22010KT P6SM FEW045 SCT250 
     FM212000 24004KT P6SM FEW060 SCT090 
     FM220900 VRB03KT P6SM SCT045